Time;durP1;ratioP1;P1;durP2;ratioP2;P2;SDS_P1;SDS_P2;PMS_P1;PMS_P2;Temp;Humidity;BMP_temperature;BMP_pressure;BME280_temperature;BME280_humidity;BME280_pressure;Samples;Min_cycle;Max_cycle;Signal;HPM_P1;HPM_P2
2024/03/31 00:00:44;;;;;;;27.80;19.58;;;10.80;99.90;;;;;;4980131;28;20026;-82
2024/03/31 00:03:10;;;;;;;26.25;18.90;;;10.80;99.90;;;;;;4958578;28;20029;-82
2024/03/31 00:05:36;;;;;;;25.27;19.38;;;10.70;99.90;;;;;;4958396;28;20105;-81
2024/03/31 00:08:01;;;;;;;23.65;18.83;;;10.60;99.90;;;;;;4978192;28;20430;-83
2024/03/31 00:10:27;;;;;;;26.73;19.30;;;10.60;99.90;;;;;;4961024;28;20022;-82
2024/03/31 00:12:52;;;;;;;26.92;18.58;;;10.60;99.90;;;;;;4961598;28;20060;-80
2024/03/31 00:15:18;;;;;;;22.17;16.25;;;10.50;99.90;;;;;;4972784;28;20033;-81
2024/03/31 00:17:43;;;;;;;23.10;17.73;;;10.40;99.90;;;;;;4958682;28;21468;-83
2024/03/31 00:20:09;;;;;;;28.75;19.15;;;10.40;99.90;;;;;;4977946;28;20087;-82
2024/03/31 00:22:35;;;;;;;29.75;19.30;;;10.40;99.90;;;;;;4957722;28;20033;-82
2024/03/31 00:25:00;;;;;;;25.73;17.73;;;10.40;99.90;;;;;;4966951;28;20030;-83
2024/03/31 00:27:26;;;;;;;26.42;17.80;;;10.30;99.90;;;;;;4986288;28;20033;-82
2024/03/31 00:29:51;;;;;;;25.83;18.70;;;10.30;99.90;;;;;;4962087;28;20041;-83
2024/03/31 00:32:17;;;;;;;25.02;17.60;;;10.30;99.90;;;;;;4980646;28;20045;-83
2024/03/31 00:34:42;;;;;;;23.83;17.98;;;10.20;99.90;;;;;;4959606;28;20530;-82
2024/03/31 00:37:08;;;;;;;22.20;17.30;;;10.20;99.90;;;;;;4954926;28;20037;-81
2024/03/31 00:39:34;;;;;;;24.67;18.88;;;10.10;99.90;;;;;;4977800;28;20161;-81
2024/03/31 00:42:00;;;;;;;25.23;18.27;;;10.10;99.90;;;;;;4958232;28;20030;-82
2024/03/31 00:44:25;;;;;;;27.40;17.98;;;10.10;99.90;;;;;;4956094;28;20050;-82
2024/03/31 00:46:51;;;;;;;27.02;18.92;;;10.00;99.90;;;;;;4967128;28;20035;-81
2024/03/31 00:49:25;;;;;;;25.33;17.73;;;10.00;99.90;;;;;;4951687;28;20057;-82
2024/03/31 00:51:51;;;;;;;23.00;17.70;;;10.00;99.90;;;;;;4958619;28;20184;-82
2024/03/31 00:54:16;;;;;;;26.52;17.90;;;9.90;99.90;;;;;;4964662;28;20577;-82
2024/03/31 00:56:42;;;;;;;27.95;18.40;;;9.90;99.90;;;;;;4959435;28;20858;-82
2024/03/31 00:59:07;;;;;;;26.23;18.40;;;9.80;99.90;;;;;;4988667;28;20034;-82
2024/03/31 01:01:33;;;;;;;30.50;19.02;;;9.80;99.90;;;;;;4970939;28;20055;-82
2024/03/31 01:03:59;;;;;;;22.42;17.05;;;9.80;99.90;;;;;;4960312;28;20153;-82
2024/03/31 01:06:25;;;;;;;28.23;18.67;;;9.80;99.90;;;;;;4982764;28;20036;-81
2024/03/31 01:08:52;;;;;;;22.98;17.20;;;9.70;99.90;;;;;;4963764;28;20030;-82
2024/03/31 01:11:18;;;;;;;25.38;16.90;;;9.70;99.90;;;;;;4983895;28;20037;-82
2024/03/31 01:13:46;;;;;;;26.35;17.60;;;9.70;99.90;;;;;;4960028;28;20037;-82
2024/03/31 01:16:12;;;;;;;26.95;17.85;;;9.70;99.90;;;;;;4948287;28;21436;-82
2024/03/31 01:18:37;;;;;;;26.70;17.25;;;9.60;99.90;;;;;;4980878;28;20038;-81
2024/03/31 01:21:04;;;;;;;28.48;16.45;;;9.60;99.90;;;;;;4957606;28;20057;-82
2024/03/31 01:23:34;;;;;;;20.98;17.00;;;9.50;99.90;;;;;;4955850;28;21159;-81
2024/03/31 01:26:03;;;;;;;20.20;15.48;;;9.50;99.90;;;;;;4980896;28;20093;-83
2024/03/31 01:28:33;;;;;;;20.70;15.40;;;9.50;99.90;;;;;;4951500;28;20038;-83
2024/03/31 01:30:59;;;;;;;20.20;14.93;;;9.50;99.90;;;;;;4946442;28;20093;-81
2024/03/31 01:33:24;;;;;;;20.17;14.63;;;9.40;99.90;;;;;;4975667;28;20633;-82
2024/03/31 01:35:50;;;;;;;22.63;15.20;;;9.40;99.90;;;;;;4970200;28;20044;-83
2024/03/31 01:38:15;;;;;;;18.70;14.07;;;9.40;99.90;;;;;;4978214;28;20030;-83
2024/03/31 01:40:41;;;;;;;18.17;13.75;;;9.30;99.90;;;;;;4965530;28;20054;-83
2024/03/31 01:43:07;;;;;;;17.67;14.02;;;9.30;99.90;;;;;;4955101;28;20903;-83
2024/03/31 01:45:32;;;;;;;18.52;15.20;;;9.30;99.90;;;;;;4978939;28;20026;-83
2024/03/31 01:47:58;;;;;;;17.30;13.75;;;9.20;99.90;;;;;;4955155;28;20049;-81
2024/03/31 01:50:24;;;;;;;19.45;13.88;;;9.10;99.90;;;;;;4975604;28;20029;-82
2024/03/31 01:52:49;;;;;;;18.17;12.52;;;9.10;99.90;;;;;;4968820;28;20031;-82
2024/03/31 01:55:15;;;;;;;19.85;14.82;;;9.10;99.90;;;;;;4957119;28;20030;-82
2024/03/31 01:57:40;;;;;;;18.42;12.63;;;9.10;99.90;;;;;;4983124;28;20032;-82
2024/03/31 02:00:07;;;;;;;21.63;14.43;;;9.00;99.90;;;;;;4954470;28;20406;-82
2024/03/31 02:02:33;;;;;;;14.57;11.95;;;8.90;99.90;;;;;;4956252;28;20026;-82
2024/03/31 02:04:58;;;;;;;16.98;12.35;;;8.90;99.90;;;;;;4980838;28;20096;-82
2024/03/31 02:07:24;;;;;;;15.60;12.25;;;8.90;99.90;;;;;;4945797;28;20045;-82
2024/03/31 02:09:50;;;;;;;16.30;12.75;;;8.80;99.90;;;;;;4967499;28;20053;-83
2024/03/31 02:12:15;;;;;;;17.65;12.65;;;8.80;99.90;;;;;;4963702;28;20506;-82
2024/03/31 02:14:41;;;;;;;16.73;12.88;;;8.80;99.90;;;;;;4954343;28;21222;-82
2024/03/31 02:17:07;;;;;;;15.50;11.93;;;8.70;99.90;;;;;;4973715;28;20041;-82
2024/03/31 02:19:32;;;;;;;22.77;13.02;;;8.70;99.90;;;;;;4949980;28;20164;-82
2024/03/31 02:21:58;;;;;;;15.77;12.00;;;8.60;99.90;;;;;;4954456;28;20042;-82
2024/03/31 02:24:23;;;;;;;18.70;12.48;;;8.60;99.90;;;;;;4987467;28;20021;-82
2024/03/31 02:26:49;;;;;;;16.73;11.77;;;8.60;99.90;;;;;;4959246;28;20092;-82
2024/03/31 02:29:14;;;;;;;18.75;12.40;;;8.60;99.90;;;;;;4984252;28;20041;-82
2024/03/31 02:31:40;;;;;;;18.58;12.75;;;8.50;99.90;;;;;;4951248;28;20042;-80
2024/03/31 02:34:05;;;;;;;17.50;12.73;;;8.50;99.90;;;;;;4972353;28;20026;-84
2024/03/31 02:36:31;;;;;;;16.17;12.77;;;8.50;99.90;;;;;;4995458;28;20040;-84
2024/03/31 02:38:58;;;;;;;17.48;12.38;;;8.50;99.90;;;;;;4969324;28;20033;-85
2024/03/31 02:41:24;;;;;;;19.65;13.50;;;8.40;99.90;;;;;;4988824;28;20099;-82
2024/03/31 02:43:51;;;;;;;20.73;12.60;;;8.40;99.90;;;;;;4985369;28;20026;-83
2024/03/31 02:46:16;;;;;;;23.38;14.50;;;8.40;99.90;;;;;;4966250;28;20117;-82
2024/03/31 02:48:42;;;;;;;20.35;13.55;;;8.30;99.90;;;;;;4980761;28;20141;-82
2024/03/31 02:51:07;;;;;;;21.70;14.82;;;8.30;99.90;;;;;;4969693;28;20125;-83
2024/03/31 02:53:33;;;;;;;22.60;14.77;;;8.30;99.90;;;;;;4967981;28;20064;-84
2024/03/31 02:55:58;;;;;;;23.98;13.90;;;8.30;99.90;;;;;;4987964;28;20117;-82
2024/03/31 02:58:24;;;;;;;23.05;15.25;;;8.30;99.90;;;;;;4959577;28;20068;-84
2024/03/31 03:00:49;;;;;;;23.58;14.63;;;8.30;99.90;;;;;;4968329;28;20088;-81
2024/03/31 03:03:15;;;;;;;22.80;15.18;;;8.30;99.90;;;;;;4967173;28;20041;-82
2024/03/31 03:05:40;;;;;;;20.35;13.95;;;8.20;99.90;;;;;;4955843;28;20898;-82
2024/03/31 03:08:06;;;;;;;23.55;15.52;;;8.30;99.90;;;;;;4980855;28;20029;-82
2024/03/31 03:10:32;;;;;;;20.70;14.85;;;8.20;99.90;;;;;;4955134;28;20030;-83
2024/03/31 03:12:59;;;;;;;21.90;14.15;;;8.20;99.90;;;;;;4946324;28;20062;-84
2024/03/31 03:15:25;;;;;;;19.90;14.13;;;8.20;99.90;;;;;;4985207;28;20045;-82
2024/03/31 03:17:52;;;;;;;21.35;14.23;;;8.30;99.90;;;;;;4947347;28;20111;-83
2024/03/31 03:20:18;;;;;;;22.92;15.10;;;8.20;99.90;;;;;;4976210;28;20084;-82
2024/03/31 03:22:44;;;;;;;24.60;14.98;;;8.20;99.90;;;;;;4958099;28;20080;-82
2024/03/31 03:25:10;;;;;;;23.88;14.27;;;8.20;99.90;;;;;;4939750;28;21395;-83
2024/03/31 03:27:35;;;;;;;21.40;13.80;;;8.20;99.90;;;;;;4979086;28;20041;-83
2024/03/31 03:30:03;;;;;;;23.00;13.98;;;8.30;99.90;;;;;;4955886;28;21766;-82
2024/03/31 03:32:28;;;;;;;21.05;14.70;;;8.20;99.90;;;;;;4957568;28;20520;-83
2024/03/31 03:34:54;;;;;;;25.55;15.55;;;8.30;99.90;;;;;;4972761;28;20030;-82
2024/03/31 03:37:20;;;;;;;19.35;13.63;;;8.20;99.90;;;;;;4949333;28;20042;-82
2024/03/31 03:39:45;;;;;;;17.67;12.40;;;8.30;99.90;;;;;;4985530;28;20037;-84
2024/03/31 03:42:11;;;;;;;21.67;13.57;;;8.20;99.90;;;;;;4963459;28;20018;-84
2024/03/31 03:44:36;;;;;;;24.15;13.95;;;8.20;99.90;;;;;;4967440;28;21591;-86
2024/03/31 03:47:02;;;;;;;20.48;13.18;;;8.20;99.90;;;;;;4981110;28;20069;-84
2024/03/31 03:49:27;;;;;;;17.65;11.98;;;8.20;99.90;;;;;;4937852;28;20057;-85
2024/03/31 03:51:53;;;;;;;20.75;12.50;;;8.20;99.90;;;;;;4958038;28;20479;-83
2024/03/31 03:54:19;;;;;;;18.42;13.18;;;8.20;99.90;;;;;;4967237;28;20022;-82
2024/03/31 03:56:44;;;;;;;18.67;13.13;;;8.20;99.90;;;;;;4953378;28;21220;-82
2024/03/31 03:59:13;;;;;;;16.55;12.73;;;8.30;99.90;;;;;;4977806;28;20041;-83
2024/03/31 04:01:39;;;;;;;18.15;13.02;;;8.20;99.90;;;;;;4954643;28;20115;-83
2024/03/31 04:04:05;;;;;;;19.23;12.23;;;8.20;99.90;;;;;;4948706;28;20038;-82
2024/03/31 04:06:31;;;;;;;18.33;11.13;;;8.20;99.90;;;;;;4972134;28;20030;-83
2024/03/31 04:08:56;;;;;;;18.85;12.98;;;8.20;99.90;;;;;;4949395;28;20038;-82
2024/03/31 04:11:22;;;;;;;16.45;11.90;;;8.20;99.90;;;;;;4969010;28;20030;-82
2024/03/31 04:13:48;;;;;;;21.35;13.82;;;8.20;99.90;;;;;;4972724;28;20041;-82
2024/03/31 04:16:14;;;;;;;22.60;13.73;;;8.10;99.90;;;;;;4946507;28;20912;-83
2024/03/31 04:18:40;;;;;;;17.15;11.82;;;8.10;99.90;;;;;;4975209;28;20030;-83
2024/03/31 04:21:08;;;;;;;15.18;11.60;;;8.10;99.90;;;;;;4951610;28;20530;-82
2024/03/31 04:23:35;;;;;;;17.60;12.25;;;8.10;99.90;;;;;;4949964;28;20026;-85
2024/03/31 04:26:00;;;;;;;17.95;12.35;;;8.10;99.90;;;;;;5001975;28;20021;-85
2024/03/31 04:28:26;;;;;;;17.67;11.77;;;8.10;99.90;;;;;;4882879;28;20038;-84
2024/03/31 04:30:52;;;;;;;13.93;10.43;;;8.10;99.90;;;;;;4913919;28;20057;-83
2024/03/31 04:33:17;;;;;;;16.27;10.90;;;8.20;99.90;;;;;;4936350;28;20026;-83
2024/03/31 04:35:43;;;;;;;15.30;10.50;;;8.10;99.90;;;;;;4884979;28;21776;-82
2024/03/31 04:38:08;;;;;;;14.00;10.75;;;8.10;99.90;;;;;;4957726;28;20025;-83
2024/03/31 04:40:34;;;;;;;14.07;10.30;;;8.10;99.90;;;;;;4960875;28;20026;-83
2024/03/31 04:43:00;;;;;;;14.85;10.18;;;8.10;99.90;;;;;;4939296;28;20053;-82
2024/03/31 04:45:26;;;;;;;14.85;10.43;;;8.10;99.90;;;;;;4967360;28;20038;-84
2024/03/31 04:47:52;;;;;;;11.85;9.57;;;8.10;99.90;;;;;;4953081;28;20113;-83
2024/03/31 04:50:18;;;;;;;14.27;10.18;;;8.10;99.90;;;;;;4993286;28;20060;-83
2024/03/31 04:52:44;;;;;;;14.65;9.88;;;8.10;99.90;;;;;;4971356;28;20033;-83
2024/03/31 04:55:10;;;;;;;13.35;8.70;;;8.10;99.90;;;;;;4949547;28;20025;-82
2024/03/31 04:57:35;;;;;;;12.60;10.18;;;8.10;99.90;;;;;;4945126;28;20059;-83
2024/03/31 05:00:01;;;;;;;13.70;9.88;;;8.10;99.90;;;;;;4954096;28;20034;-83
2024/03/31 05:02:26;;;;;;;15.43;10.50;;;8.10;99.90;;;;;;4956966;28;20496;-83
2024/03/31 05:04:52;;;;;;;12.07;9.25;;;8.20;99.90;;;;;;4971972;28;20034;-84
2024/03/31 05:07:18;;;;;;;14.65;9.75;;;8.20;99.90;;;;;;4942392;28;20034;-83
2024/03/31 05:09:44;;;;;;;12.57;9.55;;;8.20;99.90;;;;;;4933199;28;20366;-83
2024/03/31 05:12:10;;;;;;;11.52;8.68;;;8.20;99.90;;;;;;4941789;28;20116;-82
2024/03/31 05:14:35;;;;;;;11.13;9.13;;;8.20;99.90;;;;;;4930065;28;20561;-82
2024/03/31 05:17:03;;;;;;;10.80;7.97;;;8.20;99.90;;;;;;4982377;28;20061;-83
2024/03/31 05:19:29;;;;;;;10.90;7.75;;;8.20;99.90;;;;;;4959318;28;20036;-83
2024/03/31 05:21:54;;;;;;;11.63;9.00;;;8.20;99.90;;;;;;4904614;28;20378;-82
2024/03/31 05:24:20;;;;;;;10.43;8.43;;;8.20;99.90;;;;;;4921886;28;20029;-84
2024/03/31 05:26:45;;;;;;;12.15;9.18;;;8.20;99.90;;;;;;4921621;28;20674;-82
2024/03/31 05:29:11;;;;;;;13.15;9.30;;;8.30;99.90;;;;;;4958840;28;21465;-84
2024/03/31 05:31:37;;;;;;;11.80;9.20;;;8.30;99.90;;;;;;4949298;28;20038;-82
2024/03/31 05:34:03;;;;;;;11.88;8.57;;;8.30;99.90;;;;;;4902767;28;20406;-83
2024/03/31 05:36:29;;;;;;;11.57;8.95;;;8.30;99.90;;;;;;4876463;28;20073;-82
2024/03/31 05:38:55;;;;;;;10.25;8.80;;;8.30;99.90;;;;;;4924107;28;20037;-83
2024/03/31 05:41:21;;;;;;;11.18;8.55;;;8.30;99.90;;;;;;4965754;28;20041;-83
2024/03/31 05:43:46;;;;;;;11.32;8.48;;;8.30;99.90;;;;;;4966188;28;20076;-81
2024/03/31 05:46:12;;;;;;;12.60;9.45;;;8.30;99.90;;;;;;4893484;28;20486;-82
2024/03/31 05:48:37;;;;;;;10.50;8.68;;;8.30;99.90;;;;;;4892310;28;20119;-81
2024/03/31 05:51:03;;;;;;;11.35;8.32;;;8.30;99.90;;;;;;4918808;28;20080;-83
2024/03/31 05:53:29;;;;;;;13.10;8.88;;;8.30;99.90;;;;;;4899113;28;20568;-81
2024/03/31 05:55:54;;;;;;;11.52;8.15;;;8.30;99.90;;;;;;4935292;28;20037;-82
2024/03/31 05:58:20;;;;;;;10.05;7.75;;;8.30;99.90;;;;;;4949760;28;20030;-82
2024/03/31 06:00:46;;;;;;;10.70;8.73;;;8.30;99.90;;;;;;4888476;28;20058;-82
2024/03/31 06:03:11;;;;;;;10.75;8.18;;;8.30;99.90;;;;;;4911116;28;20172;-82
2024/03/31 06:05:37;;;;;;;9.32;8.20;;;8.30;99.90;;;;;;4870851;28;20034;-85
2024/03/31 06:08:02;;;;;;;9.90;8.68;;;8.30;99.90;;;;;;4954499;28;20068;-81
2024/03/31 06:10:28;;;;;;;12.55;8.50;;;8.30;99.90;;;;;;4922315;28;20033;-82
2024/03/31 06:12:53;;;;;;;10.88;9.00;;;8.30;99.90;;;;;;4928907;28;20025;-82
2024/03/31 06:15:19;;;;;;;10.00;8.68;;;8.30;99.90;;;;;;4938212;28;20046;-82
2024/03/31 06:17:45;;;;;;;11.32;8.35;;;8.30;99.90;;;;;;4945830;28;20061;-83
2024/03/31 06:20:10;;;;;;;11.75;7.50;;;8.30;99.90;;;;;;4946002;28;21367;-84
2024/03/31 06:22:40;;;;;;;11.25;8.65;;;8.30;99.90;;;;;;4991128;28;20042;-84
2024/03/31 06:25:06;;;;;;;13.68;7.97;;;8.30;99.90;;;;;;4928176;28;20025;-83
2024/03/31 06:27:31;;;;;;;9.80;8.65;;;8.30;99.90;;;;;;4923467;28;20167;-81
2024/03/31 06:29:57;;;;;;;12.07;8.70;;;8.30;99.90;;;;;;4956476;28;20397;-83
2024/03/31 06:32:23;;;;;;;8.88;7.57;;;8.30;99.90;;;;;;4939760;28;20044;-84
2024/03/31 06:34:51;;;;;;;10.43;8.40;;;8.40;99.90;;;;;;4959927;28;20632;-84
2024/03/31 06:37:19;;;;;;;10.65;8.40;;;8.40;99.90;;;;;;4940139;28;20030;-84
2024/03/31 06:39:45;;;;;;;12.45;8.02;;;8.40;99.90;;;;;;4932212;28;20375;-83
2024/03/31 06:42:11;;;;;;;11.48;7.50;;;8.40;99.90;;;;;;4954254;28;20034;-84
2024/03/31 06:44:37;;;;;;;11.60;8.57;;;8.40;99.90;;;;;;4906057;28;20029;-84
2024/03/31 06:47:03;;;;;;;10.82;8.35;;;8.40;99.90;;;;;;4910324;28;20022;-84
2024/03/31 06:49:28;;;;;;;10.13;8.35;;;8.40;99.90;;;;;;4963409;28;20072;-83
2024/03/31 06:51:54;;;;;;;8.68;7.78;;;8.40;99.90;;;;;;4902912;28;20030;-85
2024/03/31 06:54:20;;;;;;;8.90;7.97;;;8.40;99.90;;;;;;4946471;28;20042;-82
2024/03/31 06:56:45;;;;;;;8.02;7.20;;;8.40;99.90;;;;;;4922700;28;20068;-84
2024/03/31 06:59:11;;;;;;;8.88;7.03;;;8.40;99.90;;;;;;4907616;28;21264;-84
2024/03/31 07:01:37;;;;;;;8.98;7.53;;;8.40;99.90;;;;;;4951625;28;20483;-84
2024/03/31 07:04:02;;;;;;;11.10;7.65;;;8.40;99.90;;;;;;4891048;28;20034;-84
2024/03/31 07:06:28;;;;;;;11.25;8.98;;;8.40;99.90;;;;;;4907215;28;20054;-85
2024/03/31 07:08:53;;;;;;;10.68;8.15;;;8.40;99.90;;;;;;4954732;28;20018;-84
2024/03/31 07:11:19;;;;;;;9.98;8.05;;;8.40;99.90;;;;;;4886679;28;20049;-84
2024/03/31 07:13:46;;;;;;;11.07;8.63;;;8.40;99.90;;;;;;4943385;28;20284;-83
2024/03/31 07:16:11;;;;;;;9.70;8.65;;;8.40;99.90;;;;;;4886707;28;20021;-84
2024/03/31 07:18:37;;;;;;;12.05;8.90;;;8.40;99.90;;;;;;4878362;28;21403;-85
2024/03/31 07:21:03;;;;;;;12.88;9.02;;;8.40;99.90;;;;;;4943825;28;20482;-85
2024/03/31 07:23:28;;;;;;;11.00;8.60;;;8.40;99.90;;;;;;4892553;28;20121;-84
2024/03/31 07:25:59;;;;;;;12.23;8.82;;;8.40;99.90;;;;;;4904268;28;20026;-83
2024/03/31 07:28:28;;;;;;;10.43;8.38;;;8.40;99.90;;;;;;4928719;28;20032;-85
2024/03/31 07:30:59;;;;;;;10.80;8.82;;;8.50;99.90;;;;;;4895207;28;20033;-86
2024/03/31 07:33:31;;;;;;;13.70;8.88;;;8.50;99.90;;;;;;4903533;28;20113;-83
2024/03/31 07:36:01;;;;;;;10.13;8.50;;;8.50;99.90;;;;;;4958320;28;20021;-84
2024/03/31 07:38:27;;;;;;;13.38;8.90;;;8.50;99.90;;;;;;4887312;28;20022;-85
2024/03/31 07:40:53;;;;;;;10.35;8.57;;;8.50;99.90;;;;;;4924141;28;20079;-83
2024/03/31 07:43:23;;;;;;;11.88;9.15;;;8.50;99.90;;;;;;4927605;28;20434;-83
2024/03/31 07:45:49;;;;;;;13.10;9.15;;;8.50;99.90;;;;;;4895340;28;21513;-84
2024/03/31 07:48:14;;;;;;;12.77;9.10;;;8.50;99.90;;;;;;4962104;28;20054;-84
2024/03/31 07:50:40;;;;;;;12.95;8.52;;;8.50;99.90;;;;;;4893066;28;20034;-84
2024/03/31 07:53:06;;;;;;;13.93;10.52;;;8.50;99.90;;;;;;4898742;28;20049;-84
2024/03/31 07:55:31;;;;;;;14.45;9.10;;;8.50;99.90;;;;;;4934624;28;20053;-85
2024/03/31 07:58:13;;;;;;;12.73;8.98;;;8.50;99.90;;;;;;4901016;28;20038;-84
2024/03/31 08:00:43;;;;;;;12.98;8.88;;;8.50;99.90;;;;;;4885365;28;21449;-84
2024/03/31 08:03:13;;;;;;;11.57;9.10;;;8.50;99.90;;;;;;4959886;28;20179;-85
2024/03/31 08:05:39;;;;;;;12.75;9.38;;;8.50;99.90;;;;;;4894367;28;20045;-84
2024/03/31 08:08:05;;;;;;;13.40;9.60;;;8.50;99.90;;;;;;4899790;28;20030;-84
2024/03/31 08:10:31;;;;;;;14.48;9.80;;;8.50;99.90;;;;;;4955318;28;20061;-84
2024/03/31 08:12:56;;;;;;;13.23;10.10;;;8.50;99.90;;;;;;4896953;28;20054;-84
2024/03/31 08:15:22;;;;;;;15.65;11.25;;;8.50;99.90;;;;;;4934385;28;20030;-82
2024/03/31 08:17:48;;;;;;;15.35;10.60;;;8.50;99.90;;;;;;4928064;28;20025;-85
2024/03/31 08:20:13;;;;;;;16.10;10.90;;;8.50;99.90;;;;;;4905139;28;21224;-85
2024/03/31 08:22:39;;;;;;;15.15;11.60;;;8.50;99.90;;;;;;4948944;28;20427;-82
2024/03/31 08:25:04;;;;;;;12.93;10.25;;;8.50;99.90;;;;;;4899140;28;20045;-84
2024/03/31 08:27:30;;;;;;;12.48;9.68;;;8.40;99.90;;;;;;4903623;28;20030;-82
2024/03/31 08:29:55;;;;;;;14.13;10.57;;;8.40;99.90;;;;;;4962765;28;20042;-84
2024/03/31 08:32:21;;;;;;;16.13;11.27;;;8.50;99.90;;;;;;4878452;28;20413;-82
2024/03/31 08:34:47;;;;;;;17.02;11.50;;;8.50;99.90;;;;;;4939934;28;20058;-84
2024/03/31 08:37:12;;;;;;;16.65;11.38;;;8.50;99.90;;;;;;4876644;28;20034;-85
2024/03/31 08:39:38;;;;;;;14.55;9.63;;;8.50;99.90;;;;;;4894090;28;21426;-86
2024/03/31 08:42:43;;;;;;;14.07;10.70;;;8.50;99.90;;;;;;4964527;28;20034;-85
2024/03/31 08:45:13;;;;;;;16.58;10.88;;;8.50;99.90;;;;;;4966269;28;20030;-82
2024/03/31 08:47:42;;;;;;;15.10;11.38;;;8.50;99.90;;;;;;4876996;28;20045;-84
2024/03/31 08:50:08;;;;;;;15.65;11.10;;;8.60;99.90;;;;;;4896180;28;21268;-85
2024/03/31 08:52:34;;;;;;;16.23;10.93;;;8.70;99.90;;;;;;4936601;28;20447;-85
2024/03/31 08:55:01;;;;;;;16.13;10.75;;;8.70;99.90;;;;;;4895809;28;20036;-85
2024/03/31 08:57:27;;;;;;;17.58;11.30;;;8.70;99.90;;;;;;4931344;28;20026;-83
2024/03/31 08:59:53;;;;;;;15.95;11.65;;;8.80;99.90;;;;;;4922708;28;20076;-83
2024/03/31 09:02:25;;;;;;;21.92;11.48;;;8.80;99.90;;;;;;4887312;28;20030;-85
2024/03/31 09:04:52;;;;;;;15.55;11.20;;;8.80;99.90;;;;;;4918842;28;20025;-83
2024/03/31 09:07:18;;;;;;;17.80;11.60;;;8.80;99.90;;;;;;4911703;28;20034;-85
2024/03/31 09:09:43;;;;;;;15.07;10.07;;;8.80;99.90;;;;;;4883731;28;21347;-85
2024/03/31 09:12:10;;;;;;;14.45;10.88;;;8.80;99.90;;;;;;4970171;28;20109;-84
2024/03/31 09:14:42;;;;;;;16.80;11.27;;;8.80;99.90;;;;;;4894648;28;20094;-84
2024/03/31 09:17:12;;;;;;;13.77;9.90;;;8.90;99.90;;;;;;4907251;28;21175;-84
2024/03/31 09:19:38;;;;;;;16.00;11.23;;;8.90;99.90;;;;;;4939526;28;20034;-84
2024/03/31 09:22:04;;;;;;;14.30;10.75;;;8.90;99.90;;;;;;4881610;28;20022;-84
2024/03/31 09:24:30;;;;;;;14.45;10.35;;;9.00;99.90;;;;;;4900523;28;20141;-83
2024/03/31 09:26:59;;;;;;;15.10;10.88;;;9.00;99.90;;;;;;4955869;28;20085;-84
2024/03/31 09:29:26;;;;;;;14.45;10.68;;;9.10;99.90;;;;;;4882791;28;20029;-84
2024/03/31 09:32:02;;;;;;;16.48;11.77;;;9.10;99.90;;;;;;4916242;28;20052;-83
2024/03/31 09:34:28;;;;;;;14.15;10.02;;;9.20;99.90;;;;;;4944212;28;20076;-84
2024/03/31 09:36:55;;;;;;;15.48;11.15;;;9.20;99.90;;;;;;4885667;28;20109;-81
2024/03/31 09:39:21;;;;;;;18.98;12.75;;;9.20;99.90;;;;;;4941533;28;20479;-82
2024/03/31 09:41:49;;;;;;;17.33;11.88;;;9.20;99.90;;;;;;4913986;28;20033;-83
2024/03/31 09:44:15;;;;;;;14.60;10.73;;;9.20;99.90;;;;;;4904171;28;20022;-84
2024/03/31 09:46:41;;;;;;;15.52;10.68;;;9.20;99.90;;;;;;4936656;28;21223;-85
2024/03/31 09:49:10;;;;;;;19.92;13.00;;;9.30;99.90;;;;;;4902646;28;20089;-86
2024/03/31 09:51:41;;;;;;;15.82;11.70;;;9.30;99.90;;;;;;4903324;28;20152;-85
2024/03/31 09:54:13;;;;;;;18.60;13.52;;;9.40;99.90;;;;;;4958892;28;20050;-84
2024/03/31 09:56:47;;;;;;;18.80;12.15;;;9.40;99.90;;;;;;4886052;28;20030;-84
2024/03/31 09:59:15;;;;;;;15.70;10.30;;;9.50;99.90;;;;;;4898915;28;21483;-83
2024/03/31 10:01:45;;;;;;;14.73;10.45;;;9.50;99.90;;;;;;4942653;28;20038;-84
2024/03/31 10:04:37;;;;;;;14.25;10.35;;;9.60;99.90;;;;;;4897160;28;20435;-85
2024/03/31 10:07:04;;;;;;;16.73;11.13;;;9.60;99.90;;;;;;4893300;28;20037;-84
2024/03/31 10:09:30;;;;;;;12.57;9.55;;;9.70;99.90;;;;;;4884727;28;20018;-83
2024/03/31 10:11:57;;;;;;;12.60;9.43;;;9.70;99.90;;;;;;4948943;28;20055;-84
2024/03/31 10:14:24;;;;;;;14.27;10.88;;;9.60;99.90;;;;;;4874806;28;20734;-84
2024/03/31 10:16:51;;;;;;;21.05;13.10;;;9.70;99.90;;;;;;4930161;28;20025;-83
2024/03/31 10:19:17;;;;;;;15.60;11.30;;;9.70;99.90;;;;;;4910153;28;20038;-85
2024/03/31 10:21:54;;;;;;;14.38;10.35;;;9.70;99.90;;;;;;4887083;28;21488;-84
2024/03/31 10:24:35;;;;;;;12.13;9.27;;;9.70;99.90;;;;;;4942290;28;20056;-83
2024/03/31 10:27:02;;;;;;;13.77;11.10;;;9.70;99.90;;;;;;4966763;28;20034;-86
2024/03/31 10:29:46;;;;;;;13.60;10.07;;;9.80;99.90;;;;;;4884605;28;20026;-83
2024/03/31 10:32:12;;;;;;;14.00;10.48;;;9.80;99.90;;;;;;4894343;28;21478;-85
2024/03/31 10:34:40;;;;;;;15.98;10.40;;;9.80;99.90;;;;;;4936590;28;20168;-86
2024/03/31 10:37:10;;;;;;;14.07;9.10;;;9.90;99.90;;;;;;4916988;23;20045;-84
2024/03/31 10:39:36;;;;;;;14.35;10.73;;;9.80;99.90;;;;;;4907343;28;20033;-84
2024/03/31 10:42:02;;;;;;;15.77;10.98;;;9.90;99.90;;;;;;4983123;28;20021;-85
2024/03/31 10:44:28;;;;;;;15.10;11.55;;;9.90;99.90;;;;;;4913943;28;20037;-85
2024/03/31 10:46:54;;;;;;;15.95;10.23;;;10.00;99.90;;;;;;4928000;28;20049;-84
2024/03/31 10:49:39;;;;;;;14.10;9.93;;;10.00;99.90;;;;;;4965972;28;20025;-83
2024/03/31 10:52:05;;;;;;;14.30;11.02;;;10.10;99.90;;;;;;4932740;28;20033;-85
2024/03/31 10:54:35;;;;;;;14.38;10.45;;;10.10;99.90;;;;;;4921177;28;20029;-85
2024/03/31 10:57:10;;;;;;;15.63;11.65;;;10.10;99.90;;;;;;4980523;28;20038;-86
2024/03/31 10:59:38;;;;;;;13.10;9.40;;;10.10;99.90;;;;;;4901995;28;20014;-85
2024/03/31 11:02:23;;;;;;;14.93;10.15;;;10.20;99.90;;;;;;4903240;28;20037;-84
2024/03/31 11:05:01;;;;;;;12.23;10.73;;;10.30;99.90;;;;;;4950260;28;20056;-83
2024/03/31 11:07:27;;;;;;;14.35;11.18;;;10.20;99.90;;;;;;4974292;28;20032;-85
2024/03/31 11:09:53;;;;;;;13.77;10.55;;;10.30;99.90;;;;;;4885717;28;20095;-85
2024/03/31 11:12:21;;;;;;;16.60;11.13;;;10.30;99.90;;;;;;4985421;28;20029;-85
2024/03/31 11:14:47;;;;;;;14.90;10.60;;;10.20;99.90;;;;;;4922940;28;20029;-84
2024/03/31 11:17:13;;;;;;;12.43;9.98;;;10.20;99.90;;;;;;4915975;28;21544;-85
2024/03/31 11:19:39;;;;;;;11.70;9.82;;;10.20;99.90;;;;;;4970403;28;20043;-86
2024/03/31 11:22:06;;;;;;;12.38;10.10;;;10.30;99.90;;;;;;4981364;28;20069;-84
2024/03/31 11:24:37;;;;;;;13.30;9.65;;;10.30;99.90;;;;;;4972337;28;20498;-85
2024/03/31 11:27:03;;;;;;;12.77;9.63;;;10.40;99.90;;;;;;5027559;28;20033;-85
2024/03/31 11:29:29;;;;;;;11.95;8.75;;;10.40;99.90;;;;;;4985731;28;20671;-84
2024/03/31 11:31:55;;;;;;;13.35;9.85;;;10.50;99.90;;;;;;4963087;28;20383;-84
2024/03/31 11:34:21;;;;;;;12.55;9.38;;;10.70;99.90;;;;;;4939095;28;20019;-84
2024/03/31 11:36:55;;;;;;;11.60;9.60;;;10.80;99.90;;;;;;4964698;28;21263;-84
2024/03/31 11:39:35;;;;;;;11.73;9.27;;;10.90;99.90;;;;;;5005995;28;20409;-83
2024/03/31 11:42:01;;;;;;;12.45;9.15;;;11.00;99.90;;;;;;5010507;28;20033;-84
2024/03/31 11:44:32;;;;;;;15.05;10.45;;;11.20;99.90;;;;;;4972008;28;20071;-84
2024/03/31 11:47:16;;;;;;;12.55;9.35;;;11.40;99.90;;;;;;4951351;28;20022;-86
2024/03/31 11:49:42;;;;;;;13.57;9.73;;;11.40;99.90;;;;;;4953149;28;20131;-85
2024/03/31 11:52:08;;;;;;;11.00;8.70;;;11.40;99.90;;;;;;4957685;28;20029;-82
2024/03/31 11:54:33;;;;;;;11.07;9.68;;;11.50;99.90;;;;;;4958613;28;20048;-85
2024/03/31 11:57:03;;;;;;;13.32;10.27;;;11.70;99.90;;;;;;5003702;28;20037;-84
2024/03/31 11:59:28;;;;;;;9.85;8.70;;;11.80;99.90;;;;;;4969067;28;20022;-84
2024/03/31 12:01:58;;;;;;;12.82;9.50;;;11.80;99.90;;;;;;4956517;28;20032;-85
2024/03/31 12:04:23;;;;;;;12.23;9.63;;;11.80;99.90;;;;;;4941690;28;20080;-85
2024/03/31 12:06:49;;;;;;;11.75;7.75;;;11.80;99.90;;;;;;4937562;28;21358;-85
2024/03/31 12:09:15;;;;;;;12.65;9.25;;;11.90;99.90;;;;;;4996593;28;20056;-85
2024/03/31 12:11:45;;;;;;;10.10;8.52;;;12.00;99.90;;;;;;4962897;28;20021;-85
2024/03/31 12:14:11;;;;;;;10.43;9.13;;;12.00;99.90;;;;;;4935149;28;20026;-84
2024/03/31 12:16:41;;;;;;;13.55;9.82;;;12.10;99.90;;;;;;4948096;28;20025;-85
2024/03/31 12:19:07;;;;;;;11.77;9.20;;;12.20;99.90;;;;;;4951448;28;20029;-85
2024/03/31 12:21:36;;;;;;;10.05;8.63;;;12.20;99.90;;;;;;4915398;28;20048;-83
2024/03/31 12:24:03;;;;;;;13.23;8.68;;;12.20;99.90;;;;;;4975234;28;20426;-85
2024/03/31 12:26:30;;;;;;;12.32;8.68;;;12.10;99.90;;;;;;4971016;28;20049;-85
2024/03/31 12:28:56;;;;;;;11.25;9.13;;;12.10;99.90;;;;;;4912532;28;20045;-86
2024/03/31 12:31:23;;;;;;;11.35;8.07;;;12.00;99.90;;;;;;4922636;28;20539;-85
2024/03/31 12:33:49;;;;;;;13.95;9.82;;;12.10;99.90;;;;;;4915856;28;21401;-85
2024/03/31 12:36:15;;;;;;;27.80;17.58;;;12.00;99.90;;;;;;4980462;28;21403;-84